sensor_id;sensor_type;location;lat;lon;timestamp;pressure;altitude;pressure_sealevel;temperature;humidity
15314;BME280;7757;52.626;4.746;2023-03-11T00:00:51;100539.75;;;13.77;65.28
15314;BME280;7757;52.626;4.746;2023-03-11T00:03:36;100534.63;;;13.69;65.83
15314;BME280;7757;52.626;4.746;2023-03-11T00:06:22;100543.28;;;13.77;64.43
15314;BME280;7757;52.626;4.746;2023-03-11T00:09:08;100535.41;;;13.76;64.60
15314;BME280;7757;52.626;4.746;2023-03-11T00:11:54;100537.06;;;13.77;64.83
15314;BME280;7757;52.626;4.746;2023-03-11T00:14:39;100545.34;;;13.75;65.63
15314;BME280;7757;52.626;4.746;2023-03-11T00:17:24;100531.50;;;13.72;64.64
15314;BME280;7757;52.626;4.746;2023-03-11T00:20:16;100550.09;;;13.73;65.63
15314;BME280;7757;52.626;4.746;2023-03-11T00:23:02;100561.47;;;13.75;64.57
15314;BME280;7757;52.626;4.746;2023-03-11T00:25:49;100554.44;;;13.74;65.72
15314;BME280;7757;52.626;4.746;2023-03-11T00:28:35;100567.28;;;13.72;64.51
15314;BME280;7757;52.626;4.746;2023-03-11T00:31:20;100565.63;;;13.71;64.62
15314;BME280;7757;52.626;4.746;2023-03-11T00:34:06;100562.72;;;13.73;65.02
15314;BME280;7757;52.626;4.746;2023-03-11T00:36:51;100570.78;;;13.73;64.79
15314;BME280;7757;52.626;4.746;2023-03-11T00:39:37;100571.00;;;13.71;65.34
15314;BME280;7757;52.626;4.746;2023-03-11T00:42:23;100571.22;;;13.70;65.22
15314;BME280;7757;52.626;4.746;2023-03-11T00:45:09;100578.47;;;13.69;64.33
15314;BME280;7757;52.626;4.746;2023-03-11T00:47:55;100584.84;;;13.68;64.99
15314;BME280;7757;52.626;4.746;2023-03-11T00:50:40;100583.84;;;13.69;64.57
15314;BME280;7757;52.626;4.746;2023-03-11T00:53:26;100596.22;;;13.70;64.44
15314;BME280;7757;52.626;4.746;2023-03-11T00:56:13;100594.59;;;13.69;63.77
15314;BME280;7757;52.626;4.746;2023-03-11T00:59:00;100593.16;;;13.67;64.82
15314;BME280;7757;52.626;4.746;2023-03-11T01:01:45;100598.13;;;13.63;63.96
15314;BME280;7757;52.626;4.746;2023-03-11T01:04:31;100610.06;;;13.67;63.75
15314;BME280;7757;52.626;4.746;2023-03-11T01:07:16;100607.38;;;13.67;64.99
15314;BME280;7757;52.626;4.746;2023-03-11T01:10:01;100606.34;;;13.68;64.83
15314;BME280;7757;52.626;4.746;2023-03-11T01:12:47;100584.72;;;13.50;64.42
15314;BME280;7757;52.626;4.746;2023-03-11T01:15:35;100604.31;;;13.64;65.27
15314;BME280;7757;52.626;4.746;2023-03-11T01:18:22;100607.63;;;13.66;64.89
15314;BME280;7757;52.626;4.746;2023-03-11T01:21:07;100613.19;;;13.64;64.35
15314;BME280;7757;52.626;4.746;2023-03-11T01:23:53;100619.38;;;13.65;63.84
15314;BME280;7757;52.626;4.746;2023-03-11T01:26:38;100621.25;;;13.64;63.60
15314;BME280;7757;52.626;4.746;2023-03-11T01:29:23;100622.31;;;13.63;64.39
15314;BME280;7757;52.626;4.746;2023-03-11T01:32:10;100624.16;;;13.63;64.33
15314;BME280;7757;52.626;4.746;2023-03-11T01:34:55;100624.34;;;13.61;65.51
15314;BME280;7757;52.626;4.746;2023-03-11T01:37:40;100614.66;;;13.60;64.45
15314;BME280;7757;52.626;4.746;2023-03-11T01:40:29;100632.22;;;13.63;65.11
15314;BME280;7757;52.626;4.746;2023-03-11T01:43:35;100638.84;;;13.60;64.35
15314;BME280;7757;52.626;4.746;2023-03-11T01:46:24;100637.00;;;13.61;64.92
15314;BME280;7757;52.626;4.746;2023-03-11T01:49:11;100636.34;;;13.59;65.41
15314;BME280;7757;52.626;4.746;2023-03-11T01:51:59;100641.72;;;13.59;64.98
15314;BME280;7757;52.626;4.746;2023-03-11T01:54:46;100632.84;;;13.58;64.61
15314;BME280;7757;52.626;4.746;2023-03-11T01:57:32;100630.97;;;13.59;65.29
15314;BME280;7757;52.626;4.746;2023-03-11T02:00:18;100640.09;;;13.58;64.91
15314;BME280;7757;52.626;4.746;2023-03-11T02:03:08;100633.66;;;13.59;64.87
15314;BME280;7757;52.626;4.746;2023-03-11T02:05:59;100634.50;;;13.53;65.16
15314;BME280;7757;52.626;4.746;2023-03-11T02:08:45;100645.06;;;13.54;64.68
15314;BME280;7757;52.626;4.746;2023-03-11T02:11:31;100647.31;;;13.57;63.98
15314;BME280;7757;52.626;4.746;2023-03-11T02:14:17;100653.13;;;13.54;64.03
15314;BME280;7757;52.626;4.746;2023-03-11T02:17:03;100658.50;;;13.54;64.44
15314;BME280;7757;52.626;4.746;2023-03-11T02:19:58;100651.69;;;13.52;64.74
15314;BME280;7757;52.626;4.746;2023-03-11T02:22:48;100656.63;;;13.55;64.17
15314;BME280;7757;52.626;4.746;2023-03-11T02:25:36;100653.31;;;13.53;64.59
15314;BME280;7757;52.626;4.746;2023-03-11T02:28:27;100651.88;;;13.50;64.28
15314;BME280;7757;52.626;4.746;2023-03-11T02:31:13;100657.06;;;13.52;64.21
15314;BME280;7757;52.626;4.746;2023-03-11T02:34:01;100653.31;;;13.53;64.32
15314;BME280;7757;52.626;4.746;2023-03-11T02:36:46;100647.97;;;13.46;64.37
15314;BME280;7757;52.626;4.746;2023-03-11T02:39:34;100652.09;;;13.49;63.91
15314;BME280;7757;52.626;4.746;2023-03-11T02:42:23;100641.53;;;13.47;64.11
15314;BME280;7757;52.626;4.746;2023-03-11T02:45:13;100645.06;;;13.48;64.10
15314;BME280;7757;52.626;4.746;2023-03-11T02:48:01;100640.53;;;13.48;63.60
15314;BME280;7757;52.626;4.746;2023-03-11T02:50:47;100639.50;;;13.49;63.53
15314;BME280;7757;52.626;4.746;2023-03-11T02:53:36;100650.44;;;13.48;63.73
15314;BME280;7757;52.626;4.746;2023-03-11T02:56:23;100628.34;;;13.39;63.74
15314;BME280;7757;52.626;4.746;2023-03-11T02:59:08;100651.69;;;13.45;64.87
15314;BME280;7757;52.626;4.746;2023-03-11T03:01:55;100653.13;;;13.48;63.81
15314;BME280;7757;52.626;4.746;2023-03-11T03:04:40;100647.56;;;13.43;64.51
15314;BME280;7757;52.626;4.746;2023-03-11T03:07:26;100652.94;;;13.43;64.54
15314;BME280;7757;52.626;4.746;2023-03-11T03:10:11;100651.91;;;13.37;64.15
15314;BME280;7757;52.626;4.746;2023-03-11T03:12:56;100662.63;;;13.43;64.93
15314;BME280;7757;52.626;4.746;2023-03-11T03:15:42;100658.50;;;13.41;64.57
15314;BME280;7757;52.626;4.746;2023-03-11T03:18:29;100664.94;;;13.40;64.53
15314;BME280;7757;52.626;4.746;2023-03-11T03:21:14;100660.34;;;13.40;64.23
15314;BME280;7757;52.626;4.746;2023-03-11T03:23:59;100663.25;;;13.32;64.32
15314;BME280;7757;52.626;4.746;2023-03-11T03:26:45;100672.75;;;13.41;64.60
15314;BME280;7757;52.626;4.746;2023-03-11T03:29:30;100682.66;;;13.41;64.56
15314;BME280;7757;52.626;4.746;2023-03-11T03:32:15;100683.09;;;13.38;64.52
15314;BME280;7757;52.626;4.746;2023-03-11T03:35:03;100690.31;;;13.37;64.15
15314;BME280;7757;52.626;4.746;2023-03-11T03:37:49;100686.41;;;13.33;63.83
15314;BME280;7757;52.626;4.746;2023-03-11T03:40:34;100694.25;;;13.35;63.86
15314;BME280;7757;52.626;4.746;2023-03-11T03:43:20;100706.25;;;13.39;63.91
15314;BME280;7757;52.626;4.746;2023-03-11T03:46:05;100712.63;;;13.38;64.94
15314;BME280;7757;52.626;4.746;2023-03-11T03:48:51;100709.34;;;13.36;64.86
15314;BME280;7757;52.626;4.746;2023-03-11T03:51:37;100719.06;;;13.37;63.95
15314;BME280;7757;52.626;4.746;2023-03-11T03:54:23;100720.09;;;13.36;63.84
15314;BME280;7757;52.626;4.746;2023-03-11T03:57:08;100721.09;;;13.35;63.98
15314;BME280;7757;52.626;4.746;2023-03-11T03:59:54;100719.66;;;13.32;63.98
15314;BME280;7757;52.626;4.746;2023-03-11T04:02:39;100723.19;;;13.33;63.80
15314;BME280;7757;52.626;4.746;2023-03-11T04:05:25;100733.50;;;13.36;64.23
15314;BME280;7757;52.626;4.746;2023-03-11T04:08:12;100729.16;;;13.35;64.39
15314;BME280;7757;52.626;4.746;2023-03-11T04:10:57;100719.66;;;13.32;63.64
15314;BME280;7757;52.626;4.746;2023-03-11T04:13:43;100732.47;;;13.30;64.62
15314;BME280;7757;52.626;4.746;2023-03-11T04:16:28;100728.56;;;13.33;63.10
15314;BME280;7757;52.626;4.746;2023-03-11T04:19:14;100723.81;;;13.28;63.82
15314;BME280;7757;52.626;4.746;2023-03-11T04:21:59;100743.41;;;13.29;63.16
15314;BME280;7757;52.626;4.746;2023-03-11T04:24:46;100736.41;;;13.28;63.62
15314;BME280;7757;52.626;4.746;2023-03-11T04:27:31;100729.78;;;13.30;63.72
15314;BME280;7757;52.626;4.746;2023-03-11T04:30:17;100718.63;;;13.27;63.63
15314;BME280;7757;52.626;4.746;2023-03-11T04:33:02;100728.94;;;13.23;63.80
15314;BME280;7757;52.626;4.746;2023-03-11T04:35:47;100733.09;;;13.26;63.31
15314;BME280;7757;52.626;4.746;2023-03-11T04:38:32;100731.22;;;13.26;63.70
15314;BME280;7757;52.626;4.746;2023-03-11T04:41:19;100741.13;;;13.26;64.90
15314;BME280;7757;52.626;4.746;2023-03-11T04:44:04;100740.13;;;13.27;64.45
15314;BME280;7757;52.626;4.746;2023-03-11T04:46:50;100740.13;;;13.27;64.30
15314;BME280;7757;52.626;4.746;2023-03-11T04:49:36;100739.28;;;13.26;64.35
15314;BME280;7757;52.626;4.746;2023-03-11T04:52:21;100745.91;;;13.24;64.18
15314;BME280;7757;52.626;4.746;2023-03-11T04:55:07;100740.53;;;13.24;63.90
15314;BME280;7757;52.626;4.746;2023-03-11T04:57:54;100752.09;;;13.24;64.04
15314;BME280;7757;52.626;4.746;2023-03-11T05:00:39;100758.50;;;13.23;63.74
15314;BME280;7757;52.626;4.746;2023-03-11T05:03:24;100761.41;;;13.22;64.14
15314;BME280;7757;52.626;4.746;2023-03-11T05:06:10;100757.66;;;13.23;63.42
15314;BME280;7757;52.626;4.746;2023-03-11T05:08:55;100749.00;;;13.21;64.32
15314;BME280;7757;52.626;4.746;2023-03-11T05:11:42;100754.59;;;13.19;63.45
15314;BME280;7757;52.626;4.746;2023-03-11T05:14:28;100752.91;;;13.18;64.02
15314;BME280;7757;52.626;4.746;2023-03-11T05:17:14;100755.38;;;13.20;64.06
15314;BME280;7757;52.626;4.746;2023-03-11T05:20:01;100752.09;;;13.18;64.33
15314;BME280;7757;52.626;4.746;2023-03-11T05:22:48;100753.75;;;13.19;64.10
15314;BME280;7757;52.626;4.746;2023-03-11T05:25:34;100757.47;;;13.18;64.49
15314;BME280;7757;52.626;4.746;2023-03-11T05:28:19;100762.84;;;13.18;62.92
15314;BME280;7757;52.626;4.746;2023-03-11T05:31:08;100766.75;;;13.15;63.96
15314;BME280;7757;52.626;4.746;2023-03-11T05:33:54;100770.28;;;13.16;63.47
15314;BME280;7757;52.626;4.746;2023-03-11T05:36:39;100781.03;;;13.16;64.26
15314;BME280;7757;52.626;4.746;2023-03-11T05:39:24;100779.34;;;13.15;64.43
15314;BME280;7757;52.626;4.746;2023-03-11T05:42:09;100779.16;;;13.16;64.18
15314;BME280;7757;52.626;4.746;2023-03-11T05:44:55;100775.63;;;13.09;63.71
15314;BME280;7757;52.626;4.746;2023-03-11T05:47:41;100784.28;;;13.11;63.46
15314;BME280;7757;52.626;4.746;2023-03-11T05:50:27;100787.81;;;13.12;63.60
15314;BME280;7757;52.626;4.746;2023-03-11T05:53:12;100797.53;;;13.13;63.48
15314;BME280;7757;52.626;4.746;2023-03-11T05:55:58;100788.41;;;13.07;64.47
15314;BME280;7757;52.626;4.746;2023-03-11T05:58:45;100771.84;;;12.97;64.32
15314;BME280;7757;52.626;4.746;2023-03-11T06:01:31;100792.34;;;13.11;63.91
15314;BME280;7757;52.626;4.746;2023-03-11T06:04:17;100799.38;;;13.12;63.43
15314;BME280;7757;52.626;4.746;2023-03-11T06:07:03;100802.91;;;13.13;63.53
15314;BME280;7757;52.626;4.746;2023-03-11T06:09:49;100803.06;;;13.05;64.70
15314;BME280;7757;52.626;4.746;2023-03-11T06:12:34;100806.59;;;13.12;62.95
15314;BME280;7757;52.626;4.746;2023-03-11T06:15:21;100804.97;;;13.11;63.39
15314;BME280;7757;52.626;4.746;2023-03-11T06:18:06;100805.16;;;13.09;63.89
15314;BME280;7757;52.626;4.746;2023-03-11T06:20:56;100788.97;;;12.96;63.40
15314;BME280;7757;52.626;4.746;2023-03-11T06:23:42;100809.50;;;13.10;63.21
15314;BME280;7757;52.626;4.746;2023-03-11T06:26:27;100808.47;;;13.11;62.65
15314;BME280;7757;52.626;4.746;2023-03-11T06:29:13;100812.75;;;13.06;63.95
15314;BME280;7757;52.626;4.746;2023-03-11T06:31:59;100813.44;;;13.14;63.92
15314;BME280;7757;52.626;4.746;2023-03-11T06:34:48;100814.47;;;13.13;63.80
15314;BME280;7757;52.626;4.746;2023-03-11T06:37:36;100818.81;;;13.21;62.59
15314;BME280;7757;52.626;4.746;2023-03-11T06:40:21;100818.00;;;13.20;63.03
15314;BME280;7757;52.626;4.746;2023-03-11T06:43:06;100818.19;;;13.19;63.01
15314;BME280;7757;52.626;4.746;2023-03-11T06:45:51;100822.31;;;13.15;63.52
15314;BME280;7757;52.626;4.746;2023-03-11T06:48:37;100824.59;;;13.18;63.47
15314;BME280;7757;52.626;4.746;2023-03-11T06:51:22;100819.03;;;13.19;63.35
15314;BME280;7757;52.626;4.746;2023-03-11T06:54:09;100822.75;;;13.25;64.17
15314;BME280;7757;52.626;4.746;2023-03-11T06:56:55;100836.19;;;13.31;62.98
15314;BME280;7757;52.626;4.746;2023-03-11T06:59:41;100844.25;;;13.38;62.47
15314;BME280;7757;52.626;4.746;2023-03-11T07:02:26;100855.63;;;13.47;63.14
15314;BME280;7757;52.626;4.746;2023-03-11T07:05:11;100852.34;;;13.51;62.41
15314;BME280;7757;52.626;4.746;2023-03-11T07:07:58;100847.78;;;13.58;62.31
15314;BME280;7757;52.626;4.746;2023-03-11T07:10:44;100853.00;;;13.66;63.04
15314;BME280;7757;52.626;4.746;2023-03-11T07:13:31;100856.28;;;13.68;62.52
15314;BME280;7757;52.626;4.746;2023-03-11T07:16:18;100861.03;;;13.73;62.24
15314;BME280;7757;52.626;4.746;2023-03-11T07:19:04;100864.16;;;13.83;61.61
15314;BME280;7757;52.626;4.746;2023-03-11T07:21:49;100868.50;;;13.97;62.08
15314;BME280;7757;52.626;4.746;2023-03-11T07:24:34;100869.94;;;14.13;61.44
15314;BME280;7757;52.626;4.746;2023-03-11T07:27:21;100866.84;;;14.22;60.68
15314;BME280;7757;52.626;4.746;2023-03-11T07:30:08;100876.16;;;14.33;60.63
15314;BME280;7757;52.626;4.746;2023-03-11T07:32:53;100880.69;;;14.45;61.44
15314;BME280;7757;52.626;4.746;2023-03-11T07:35:39;100879.03;;;14.58;60.77
15314;BME280;7757;52.626;4.746;2023-03-11T07:38:24;100876.31;;;14.64;61.12
15314;BME280;7757;52.626;4.746;2023-03-11T07:41:10;100881.88;;;14.69;61.63
15314;BME280;7757;52.626;4.746;2023-03-11T07:43:58;100871.31;;;14.74;61.71
15314;BME280;7757;52.626;4.746;2023-03-11T07:46:44;100873.75;;;14.82;60.52
15314;BME280;7757;52.626;4.746;2023-03-11T07:49:30;100873.31;;;14.85;61.55
15314;BME280;7757;52.626;4.746;2023-03-11T07:52:15;100886.34;;;14.95;60.70
15314;BME280;7757;52.626;4.746;2023-03-11T07:55:01;100887.19;;;14.95;60.60
15314;BME280;7757;52.626;4.746;2023-03-11T07:57:47;100875.75;;;15.00;59.96
15314;BME280;7757;52.626;4.746;2023-03-11T08:00:38;100878.22;;;15.08;61.04
15314;BME280;7757;52.626;4.746;2023-03-11T08:03:23;100852.78;;;14.97;60.57
15314;BME280;7757;52.626;4.746;2023-03-11T08:06:12;100893.69;;;15.26;60.71
15314;BME280;7757;52.626;4.746;2023-03-11T08:08:58;100911.25;;;15.35;60.61
15314;BME280;7757;52.626;4.746;2023-03-11T08:11:43;100901.25;;;15.48;60.59
15314;BME280;7757;52.626;4.746;2023-03-11T08:14:29;100905.94;;;15.59;60.20
15314;BME280;7757;52.626;4.746;2023-03-11T08:17:16;100916.66;;;15.73;59.41
15314;BME280;7757;52.626;4.746;2023-03-11T08:20:01;100914.69;;;15.86;58.78
15314;BME280;7757;52.626;4.746;2023-03-11T08:22:47;100922.06;;;15.97;58.34
15314;BME280;7757;52.626;4.746;2023-03-11T08:25:33;100919.72;;;16.07;58.68
15314;BME280;7757;52.626;4.746;2023-03-11T08:28:22;100916.13;;;16.13;58.22
15314;BME280;7757;52.626;4.746;2023-03-11T08:31:12;100922.53;;;16.19;58.32
15314;BME280;7757;52.626;4.746;2023-03-11T08:34:01;100923.97;;;16.22;57.90
15314;BME280;7757;52.626;4.746;2023-03-11T08:36:46;100920.53;;;16.33;57.34
15314;BME280;7757;52.626;4.746;2023-03-11T08:39:31;100928.81;;;16.38;57.74
15314;BME280;7757;52.626;4.746;2023-03-11T08:42:17;100932.25;;;16.45;56.58
15314;BME280;7757;52.626;4.746;2023-03-11T08:45:03;100935.78;;;16.45;56.97
15314;BME280;7757;52.626;4.746;2023-03-11T08:47:49;100944.50;;;16.47;56.40
15314;BME280;7757;52.626;4.746;2023-03-11T08:50:35;100939.31;;;16.46;57.10
15314;BME280;7757;52.626;4.746;2023-03-11T08:53:21;100942.41;;;16.49;56.24
15314;BME280;7757;52.626;4.746;2023-03-11T08:56:07;100941.81;;;16.47;56.43
15314;BME280;7757;52.626;4.746;2023-03-11T08:58:52;100950.47;;;16.56;55.86
15314;BME280;7757;52.626;4.746;2023-03-11T09:01:37;100954.41;;;16.53;55.98
15314;BME280;7757;52.626;4.746;2023-03-11T09:04:23;100933.31;;;16.44;56.68
15314;BME280;7757;52.626;4.746;2023-03-11T09:07:10;100967.22;;;16.64;56.24
15314;BME280;7757;52.626;4.746;2023-03-11T09:09:56;100969.38;;;16.74;55.62
15314;BME280;7757;52.626;4.746;2023-03-11T09:12:42;100974.97;;;16.79;55.91
15314;BME280;7757;52.626;4.746;2023-03-11T09:15:27;100969.78;;;16.78;55.29
15314;BME280;7757;52.626;4.746;2023-03-11T09:18:13;100967.63;;;16.68;55.96
15314;BME280;7757;52.626;4.746;2023-03-11T09:20:59;100968.22;;;16.70;55.62
15314;BME280;7757;52.626;4.746;2023-03-11T09:23:46;100968.34;;;16.75;56.05
15314;BME280;7757;52.626;4.746;2023-03-11T09:26:32;100970.16;;;16.81;55.84
15314;BME280;7757;52.626;4.746;2023-03-11T09:29:17;100975.56;;;16.81;55.40
15314;BME280;7757;52.626;4.746;2023-03-11T09:32:03;100971.38;;;16.85;55.82
15314;BME280;7757;52.626;4.746;2023-03-11T09:34:49;100968.44;;;16.87;55.79
15314;BME280;7757;52.626;4.746;2023-03-11T09:37:34;100957.63;;;16.87;55.33
15314;BME280;7757;52.626;4.746;2023-03-11T09:40:22;100952.28;;;16.80;55.44
15314;BME280;7757;52.626;4.746;2023-03-11T09:43:15;100956.50;;;16.76;55.70
15314;BME280;7757;52.626;4.746;2023-03-11T09:46:12;100951.16;;;16.69;55.86
15314;BME280;7757;52.626;4.746;2023-03-11T09:49:06;100957.84;;;16.67;55.82
15314;BME280;7757;52.626;4.746;2023-03-11T09:51:59;100947.78;;;16.56;55.49
15314;BME280;7757;52.626;4.746;2023-03-11T09:54:50;100962.72;;;16.58;55.86
15314;BME280;7757;52.626;4.746;2023-03-11T09:57:37;100954.22;;;16.55;55.51
15314;BME280;7757;52.626;4.746;2023-03-11T10:00:24;100958.78;;;16.54;56.27
15314;BME280;7757;52.626;4.746;2023-03-11T10:03:24;100955.06;;;16.49;56.32
15314;BME280;7757;52.626;4.746;2023-03-11T10:06:14;100944.38;;;16.36;56.34
15314;BME280;7757;52.626;4.746;2023-03-11T10:09:03;100951.69;;;16.35;56.59
15314;BME280;7757;52.626;4.746;2023-03-11T10:12:00;100951.69;;;16.35;56.17
15314;BME280;7757;52.626;4.746;2023-03-11T10:15:17;100964.53;;;16.33;56.60
15314;BME280;7757;52.626;4.746;2023-03-11T10:18:22;100936.69;;;16.14;56.37
15314;BME280;7757;52.626;4.746;2023-03-11T10:21:16;100967.53;;;16.25;56.94
15314;BME280;7757;52.626;4.746;2023-03-11T10:24:12;100963.84;;;16.19;56.89
15314;BME280;7757;52.626;4.746;2023-03-11T10:27:02;100962.41;;;16.17;56.75
15314;BME280;7757;52.626;4.746;2023-03-11T10:29:55;100968.63;;;16.17;57.04
15314;BME280;7757;52.626;4.746;2023-03-11T10:32:47;100965.94;;;16.17;56.53
15314;BME280;7757;52.626;4.746;2023-03-11T10:35:37;100959.91;;;16.15;56.77
15314;BME280;7757;52.626;4.746;2023-03-11T10:38:25;100968.00;;;16.15;56.82
15314;BME280;7757;52.626;4.746;2023-03-11T10:41:16;100928.59;;;15.83;56.83
15314;BME280;7757;52.626;4.746;2023-03-11T10:44:06;100973.91;;;16.06;57.21
15314;BME280;7757;52.626;4.746;2023-03-11T10:46:55;100969.38;;;16.00;56.81
15314;BME280;7757;52.626;4.746;2023-03-11T10:49:42;100972.72;;;15.95;56.63
15314;BME280;7757;52.626;4.746;2023-03-11T10:52:28;100980.41;;;15.92;56.56
15314;BME280;7757;52.626;4.746;2023-03-11T10:55:15;100977.56;;;15.87;57.76
15314;BME280;7757;52.626;4.746;2023-03-11T10:58:04;100977.16;;;15.83;57.96
15314;BME280;7757;52.626;4.746;2023-03-11T11:01:01;100979.03;;;15.83;56.99
15314;BME280;7757;52.626;4.746;2023-03-11T11:03:50;100982.97;;;15.80;57.45
15314;BME280;7757;52.626;4.746;2023-03-11T11:06:37;100984.91;;;15.73;57.47
15314;BME280;7757;52.626;4.746;2023-03-11T11:09:22;100980.31;;;15.74;57.40
15314;BME280;7757;52.626;4.746;2023-03-11T11:12:12;100986.78;;;15.66;57.72
15314;BME280;7757;52.626;4.746;2023-03-11T11:14:58;100987.22;;;15.63;57.00
15314;BME280;7757;52.626;4.746;2023-03-11T11:17:46;100990.75;;;15.63;57.92
15314;BME280;7757;52.626;4.746;2023-03-11T11:20:33;100987.47;;;15.61;57.01
15314;BME280;7757;52.626;4.746;2023-03-11T11:23:26;101000.53;;;15.58;57.30
15314;BME280;7757;52.626;4.746;2023-03-11T11:26:17;101001.13;;;15.60;56.69
15314;BME280;7757;52.626;4.746;2023-03-11T11:29:12;101003.84;;;15.53;57.62
15314;BME280;7757;52.626;4.746;2023-03-11T11:32:10;101000.13;;;15.54;56.60
15314;BME280;7757;52.626;4.746;2023-03-11T11:35:01;100996.00;;;15.52;57.39
15314;BME280;7757;52.626;4.746;2023-03-11T11:37:47;100997.84;;;15.45;57.42
15314;BME280;7757;52.626;4.746;2023-03-11T11:40:35;100995.59;;;15.48;57.98
15314;BME280;7757;52.626;4.746;2023-03-11T11:43:25;100975.28;;;15.33;57.06
15314;BME280;7757;52.626;4.746;2023-03-11T11:46:23;100984.81;;;15.42;57.49
15314;BME280;7757;52.626;4.746;2023-03-11T11:49:15;100980.25;;;15.42;57.31
15314;BME280;7757;52.626;4.746;2023-03-11T11:52:07;100983.16;;;15.41;57.82
15314;BME280;7757;52.626;4.746;2023-03-11T11:54:56;100979.00;;;15.38;57.16
15314;BME280;7757;52.626;4.746;2023-03-11T11:57:46;100982.09;;;15.42;57.52
15314;BME280;7757;52.626;4.746;2023-03-11T12:00:36;100985.22;;;15.39;57.47
15314;BME280;7757;52.626;4.746;2023-03-11T12:03:39;100985.22;;;15.39;57.13
15314;BME280;7757;52.626;4.746;2023-03-11T12:06:30;100982.56;;;15.32;56.84
15314;BME280;7757;52.626;4.746;2023-03-11T12:09:24;100990.88;;;15.31;57.75
15314;BME280;7757;52.626;4.746;2023-03-11T12:12:19;100983.78;;;15.36;57.25
15314;BME280;7757;52.626;4.746;2023-03-11T12:15:11;100981.53;;;15.27;56.93
15314;BME280;7757;52.626;4.746;2023-03-11T12:18:01;100981.09;;;15.36;57.32
15314;BME280;7757;52.626;4.746;2023-03-11T12:20:53;100980.47;;;15.41;56.22
15314;BME280;7757;52.626;4.746;2023-03-11T12:23:45;100931.88;;;15.03;57.33
15314;BME280;7757;52.626;4.746;2023-03-11T12:26:35;100980.69;;;15.33;57.64
15314;BME280;7757;52.626;4.746;2023-03-11T12:29:25;100984.22;;;15.33;56.44
15314;BME280;7757;52.626;4.746;2023-03-11T12:32:21;100981.75;;;15.32;56.76
15314;BME280;7757;52.626;4.746;2023-03-11T12:35:09;100986.91;;;15.33;56.96
15314;BME280;7757;52.626;4.746;2023-03-11T12:38:06;100982.56;;;15.32;56.83
15314;BME280;7757;52.626;4.746;2023-03-11T12:41:02;100977.78;;;15.34;56.24
15314;BME280;7757;52.626;4.746;2023-03-11T12:44:22;100976.56;;;15.30;56.11
15314;BME280;7757;52.626;4.746;2023-03-11T12:47:29;100977.78;;;15.34;55.87
15314;BME280;7757;52.626;4.746;2023-03-11T12:50:37;100981.94;;;15.37;56.40
15314;BME280;7757;52.626;4.746;2023-03-11T12:53:41;100971.00;;;15.25;56.13
15314;BME280;7757;52.626;4.746;2023-03-11T12:56:33;100974.25;;;15.40;55.83
15314;BME280;7757;52.626;4.746;2023-03-11T12:59:43;100989.78;;;15.38;56.25
15314;BME280;7757;52.626;4.746;2023-03-11T13:02:51;100991.84;;;15.43;56.62
15314;BME280;7757;52.626;4.746;2023-03-11T13:05:50;100984.59;;;15.43;56.21
15314;BME280;7757;52.626;4.746;2023-03-11T13:08:43;100986.47;;;15.43;56.09
15314;BME280;7757;52.626;4.746;2023-03-11T13:11:41;100992.69;;;15.43;55.50
15314;BME280;7757;52.626;4.746;2023-03-11T13:14:29;100991.03;;;15.36;57.07
15314;BME280;7757;52.626;4.746;2023-03-11T13:17:23;100987.16;;;15.25;56.90
15314;BME280;7757;52.626;4.746;2023-03-11T13:23:32;100982.78;;;15.24;56.10
15314;BME280;7757;52.626;4.746;2023-03-11T13:26:28;100989.63;;;15.27;55.88
15314;BME280;7757;52.626;4.746;2023-03-11T13:32:53;100997.09;;;15.25;56.17
15314;BME280;7757;52.626;4.746;2023-03-11T13:35:58;100994.38;;;15.31;55.95
15314;BME280;7757;52.626;4.746;2023-03-11T13:39:00;100989.63;;;15.27;56.71
15314;BME280;7757;52.626;4.746;2023-03-11T13:41:51;100996.03;;;15.32;55.88
15314;BME280;7757;52.626;4.746;2023-03-11T13:44:38;100995.66;;;15.22;56.15
15314;BME280;7757;52.626;4.746;2023-03-11T13:47:25;100995.84;;;15.21;56.50
15314;BME280;7757;52.626;4.746;2023-03-11T13:50:16;101004.75;;;15.28;56.06
15314;BME280;7757;52.626;4.746;2023-03-11T13:53:08;100995.25;;;15.19;56.72
15314;BME280;7757;52.626;4.746;2023-03-11T13:55:58;101007.28;;;15.23;55.97
15314;BME280;7757;52.626;4.746;2023-03-11T13:58:44;101004.16;;;15.19;56.17
15314;BME280;7757;52.626;4.746;2023-03-11T14:01:29;101005.41;;;15.23;56.62
15314;BME280;7757;52.626;4.746;2023-03-11T14:04:19;101013.69;;;15.15;56.65
15314;BME280;7757;52.626;4.746;2023-03-11T14:07:11;101007.28;;;15.16;56.83
15314;BME280;7757;52.626;4.746;2023-03-11T14:10:18;101018.25;;;15.15;56.22
15314;BME280;7757;52.626;4.746;2023-03-11T14:13:13;101007.88;;;15.18;56.60
15314;BME280;7757;52.626;4.746;2023-03-11T14:16:03;101009.38;;;15.14;56.91
15314;BME280;7757;52.626;4.746;2023-03-11T14:19:00;101018.25;;;15.21;56.31
15314;BME280;7757;52.626;4.746;2023-03-11T14:21:48;101013.09;;;15.20;56.05
15314;BME280;7757;52.626;4.746;2023-03-11T14:24:35;101018.47;;;15.20;56.23
15314;BME280;7757;52.626;4.746;2023-03-11T14:27:21;101022.00;;;15.20;56.88
15314;BME280;7757;52.626;4.746;2023-03-11T14:30:18;101002.94;;;15.15;56.81
15314;BME280;7757;52.626;4.746;2023-03-11T14:33:11;101015.97;;;15.25;55.82
15314;BME280;7757;52.626;4.746;2023-03-11T14:36:04;101015.38;;;15.09;56.10
15314;BME280;7757;52.626;4.746;2023-03-11T14:38:55;101005.03;;;15.06;56.04
15314;BME280;7757;52.626;4.746;2023-03-11T14:41:40;101017.00;;;15.24;55.95
15314;BME280;7757;52.626;4.746;2023-03-11T14:44:26;101016.81;;;15.19;56.44
15314;BME280;7757;52.626;4.746;2023-03-11T14:47:18;101016.56;;;15.27;56.76
15314;BME280;7757;52.626;4.746;2023-03-11T14:50:10;101008.47;;;15.27;54.79
15314;BME280;7757;52.626;4.746;2023-03-11T14:53:01;101013.44;;;15.30;55.88
15314;BME280;7757;52.626;4.746;2023-03-11T14:55:49;101026.06;;;15.36;56.17
15314;BME280;7757;52.626;4.746;2023-03-11T14:58:38;101022.97;;;15.32;56.70